Time;durP1;ratioP1;P1;durP2;ratioP2;P2;SDS_P1;SDS_P2;PMS_P1;PMS_P2;Temp;Humidity;BMP_temperature;BMP_pressure;BME280_temperature;BME280_humidity;BME280_pressure;Samples;Min_cycle;Max_cycle;Signal;HPM_P1;HPM_P2
2022/10/01 00:02:27;;;;;;;10.88;5.40;;;16.80;58.60;;;;;;6217636;28;20349;-76
2022/10/01 00:05:28;;;;;;;17.20;7.63;;;16.80;58.60;;;;;;6224974;28;20041;-76
2022/10/01 00:08:31;;;;;;;13.90;7.22;;;16.80;58.60;;;;;;6211630;28;20065;-77
2022/10/01 00:11:33;;;;;;;17.65;7.32;;;16.80;58.60;;;;;;6199910;28;20034;-76
2022/10/01 00:14:37;;;;;;;14.77;5.40;;;16.80;58.50;;;;;;6192930;28;20073;-76
2022/10/01 00:17:38;;;;;;;11.10;5.45;;;16.80;58.50;;;;;;6180692;28;20134;-76
2022/10/01 00:20:42;;;;;;;14.57;6.63;;;16.80;58.50;;;;;;6213470;28;20113;-77
2022/10/01 00:23:44;;;;;;;19.17;7.00;;;16.80;58.50;;;;;;6223243;28;20099;-75
2022/10/01 00:26:46;;;;;;;13.90;6.70;;;16.80;58.40;;;;;;6199968;28;20042;-76
2022/10/01 00:29:48;;;;;;;14.35;5.35;;;16.80;58.40;;;;;;6200147;28;20038;-76
2022/10/01 00:32:53;;;;;;;12.73;4.30;;;16.80;58.40;;;;;;6185334;28;20048;-75
2022/10/01 00:35:55;;;;;;;9.93;4.50;;;16.80;58.40;;;;;;6221985;28;20067;-76
2022/10/01 00:38:59;;;;;;;6.45;3.40;;;16.80;58.40;;;;;;6198913;28;20042;-76
2022/10/01 00:42:00;;;;;;;9.80;3.85;;;16.80;58.50;;;;;;6200711;28;20045;-76
2022/10/01 00:45:01;;;;;;;11.85;4.07;;;16.80;58.50;;;;;;6199528;28;20026;-76
2022/10/01 00:48:02;;;;;;;9.10;4.07;;;16.80;58.40;;;;;;6200973;28;20077;-76
2022/10/01 00:51:05;;;;;;;9.48;3.15;;;16.80;58.40;;;;;;6222406;28;20026;-75
2022/10/01 00:54:13;;;;;;;7.40;3.80;;;16.80;58.50;;;;;;6222683;28;20030;-76
2022/10/01 00:57:20;;;;;;;5.47;3.95;;;16.80;58.50;;;;;;6222225;28;20045;-76
2022/10/01 01:00:22;;;;;;;6.18;3.38;;;16.80;59.10;;;;;;6223615;28;20097;-75
2022/10/01 01:03:23;;;;;;;12.32;3.47;;;16.80;58.50;;;;;;6213571;28;20130;-75
2022/10/01 01:06:24;;;;;;;6.00;3.20;;;16.80;58.50;;;;;;6215570;28;20045;-75
2022/10/01 01:09:33;;;;;;;7.32;3.42;;;16.80;58.50;;;;;;6204277;28;20668;-76
2022/10/01 01:12:52;;;;;;;5.82;3.42;;;16.80;58.60;;;;;;6214137;28;20060;-76
2022/10/01 01:15:59;;;;;;;13.13;2.92;;;16.80;58.60;;;;;;6223155;28;20057;-76
2022/10/01 01:19:26;;;;;;;9.38;3.65;;;16.70;58.50;;;;;;6210074;28;20412;-77
2022/10/01 01:22:32;;;;;;;5.15;3.35;;;16.70;58.70;;;;;;6194983;28;20046;-76
2022/10/01 01:26:04;;;;;;;6.50;3.85;;;16.70;58.70;;;;;;6210480;28;20062;-76
2022/10/01 01:29:18;;;;;;;6.68;4.00;;;16.70;58.80;;;;;;6194915;28;20389;-76
2022/10/01 01:32:45;;;;;;;9.00;3.58;;;16.60;58.90;;;;;;6192404;28;20034;-76
2022/10/01 01:35:55;;;;;;;6.05;3.53;;;16.60;59.10;;;;;;6190617;28;20463;-75
2022/10/01 01:39:03;;;;;;;7.88;3.42;;;16.50;59.10;;;;;;6192050;28;20049;-75
2022/10/01 01:42:09;;;;;;;5.93;3.47;;;16.50;59.20;;;;;;6198325;28;20037;-75
2022/10/01 01:45:14;;;;;;;5.97;3.70;;;16.50;59.20;;;;;;6214602;28;20271;-75
2022/10/01 01:48:15;;;;;;;7.18;2.92;;;16.40;59.30;;;;;;6192058;28;20033;-75
2022/10/01 01:51:19;;;;;;;5.55;3.17;;;16.40;59.40;;;;;;6205923;28;20549;-75
2022/10/01 01:54:20;;;;;;;4.03;2.80;;;16.40;59.40;;;;;;6179182;28;20038;-75
2022/10/01 01:57:21;;;;;;;3.78;2.38;;;16.40;59.50;;;;;;6196302;28;20495;-77
2022/10/01 02:00:22;;;;;;;6.97;2.42;;;16.40;59.70;;;;;;6192777;28;20117;-76
2022/10/01 02:03:25;;;;;;;6.43;2.85;;;16.30;59.70;;;;;;6195672;28;20391;-75
2022/10/01 02:06:43;;;;;;;7.90;2.72;;;16.30;59.90;;;;;;6205140;28;20034;-75
2022/10/01 02:09:55;;;;;;;5.40;2.88;;;16.30;59.90;;;;;;6204952;28;20100;-75
2022/10/01 02:13:05;;;;;;;6.38;2.47;;;16.30;60.20;;;;;;6177972;28;20096;-75
2022/10/01 02:16:24;;;;;;;6.03;2.25;;;16.20;60.30;;;;;;6203216;28;20035;-75
2022/10/01 02:19:43;;;;;;;9.38;2.70;;;16.20;60.50;;;;;;6207828;28;20025;-75
2022/10/01 02:22:48;;;;;;;4.20;2.75;;;16.20;60.50;;;;;;6212275;28;20444;-75
2022/10/01 02:25:55;;;;;;;5.40;2.78;;;16.10;60.50;;;;;;6212567;28;20040;-75
2022/10/01 02:29:01;;;;;;;5.38;2.78;;;16.10;60.60;;;;;;6208231;28;20126;-75
2022/10/01 02:32:03;;;;;;;8.18;2.80;;;16.10;60.60;;;;;;6199331;28;20042;-75
2022/10/01 02:35:08;;;;;;;7.53;2.97;;;16.10;60.70;;;;;;6216904;28;20363;-75
2022/10/01 02:38:11;;;;;;;11.60;3.10;;;16.00;60.70;;;;;;6174781;28;20042;-75
2022/10/01 02:41:16;;;;;;;4.93;2.83;;;16.00;60.90;;;;;;6193742;28;20395;-75
2022/10/01 02:44:22;;;;;;;4.18;2.70;;;15.90;61.00;;;;;;6176297;28;20521;-75
2022/10/01 02:47:32;;;;;;;4.35;3.05;;;15.90;61.20;;;;;;6194181;28;20126;-75
2022/10/01 02:50:48;;;;;;;6.43;2.63;;;15.90;61.30;;;;;;6191208;28;20030;-75
2022/10/01 02:53:55;;;;;;;7.95;2.83;;;15.80;61.50;;;;;;6203629;28;20034;-75
2022/10/01 03:00:20;;;;;;;4.15;2.55;;;15.80;61.80;;;;;;6210125;28;20064;-76
2022/10/01 03:03:22;;;;;;;4.43;2.53;;;15.70;61.80;;;;;;6186509;28;20056;-75
2022/10/01 03:06:23;;;;;;;4.32;2.78;;;15.70;62.00;;;;;;6197491;28;20062;-75
2022/10/01 03:09:24;;;;;;;5.72;2.70;;;15.70;62.00;;;;;;6204767;28;20460;-76
2022/10/01 03:12:25;;;;;;;3.33;2.53;;;15.60;62.20;;;;;;6213815;28;20038;-75
2022/10/01 03:15:27;;;;;;;7.63;2.55;;;15.60;62.20;;;;;;6216661;28;22182;-77
2022/10/01 03:18:28;;;;;;;5.03;2.65;;;15.50;62.40;;;;;;6212650;28;20044;-75
2022/10/01 03:21:29;;;;;;;3.95;2.22;;;15.50;62.60;;;;;;6220928;28;20505;-75
2022/10/01 03:24:30;;;;;;;5.90;1.95;;;15.50;62.60;;;;;;6220064;28;20030;-75
2022/10/01 03:27:31;;;;;;;5.20;2.30;;;15.40;62.60;;;;;;6220953;28;20030;-76
2022/10/01 03:30:33;;;;;;;5.03;2.22;;;15.30;62.70;;;;;;6222252;28;20053;-77
2022/10/01 03:33:34;;;;;;;2.88;2.20;;;15.20;62.70;;;;;;6206283;28;20030;-76
2022/10/01 03:36:36;;;;;;;4.20;2.17;;;15.20;62.90;;;;;;6197442;28;20534;-75
2022/10/01 03:39:38;;;;;;;7.88;2.42;;;15.10;63.20;;;;;;6196546;28;20042;-75
2022/10/01 03:42:39;;;;;;;4.18;2.13;;;15.00;63.30;;;;;;6194959;28;20046;-75
2022/10/01 03:45:40;;;;;;;8.52;2.38;;;15.00;63.50;;;;;;6208908;28;20595;-76
2022/10/01 03:48:41;;;;;;;4.72;2.53;;;15.00;63.60;;;;;;6203289;28;20053;-76
2022/10/01 03:51:44;;;;;;;4.65;2.35;;;15.00;63.60;;;;;;6221509;28;20041;-76
2022/10/01 03:54:44;;;;;;;5.20;2.38;;;15.00;63.70;;;;;;6204927;28;20034;-76
2022/10/01 03:57:46;;;;;;;4.85;2.47;;;15.00;63.70;;;;;;6222931;28;20069;-76
2022/10/01 04:00:47;;;;;;;3.80;1.98;;;14.90;63.80;;;;;;6201768;28;20038;-76
2022/10/01 04:03:49;;;;;;;3.92;2.60;;;15.00;63.90;;;;;;6197077;28;20034;-76
2022/10/01 04:06:50;;;;;;;3.20;2.10;;;15.00;63.80;;;;;;6209977;28;20037;-75
2022/10/01 04:09:51;;;;;;;5.68;2.50;;;15.00;63.70;;;;;;6203049;28;20422;-75
2022/10/01 04:12:54;;;;;;;3.85;2.55;;;15.10;63.80;;;;;;6199598;28;20039;-76
2022/10/01 04:15:55;;;;;;;7.72;2.70;;;15.10;63.70;;;;;;6199428;28;20065;-76
2022/10/01 04:18:56;;;;;;;3.78;2.75;;;15.20;63.70;;;;;;6201036;28;20034;-77
2022/10/01 04:21:57;;;;;;;4.18;2.78;;;15.20;63.70;;;;;;6203570;28;20364;-76
2022/10/01 04:24:58;;;;;;;7.47;2.95;;;15.20;63.80;;;;;;6200982;28;20034;-76
2022/10/01 04:28:02;;;;;;;6.00;2.45;;;15.20;63.80;;;;;;6198295;28;20046;-76
2022/10/01 04:34:51;;;;;;;4.53;2.65;;;15.20;63.60;;;;;;6213650;28;20030;-76
2022/10/01 04:37:44;;;;;;;5.95;2.42;;;15.20;63.60;;;;;;6215543;28;20045;-76
2022/10/01 04:40:45;;;;;;;6.80;1.80;;;15.10;63.60;;;;;;6179025;28;20456;-76
2022/10/01 04:43:46;;;;;;;5.68;2.25;;;15.10;63.70;;;;;;6198600;28;20066;-76
2022/10/01 04:46:47;;;;;;;3.80;2.30;;;15.00;63.70;;;;;;6198000;28;20046;-76
2022/10/01 04:49:48;;;;;;;3.25;2.38;;;15.00;63.90;;;;;;6214873;28;20038;-76
2022/10/01 04:52:50;;;;;;;2.60;1.90;;;15.00;63.90;;;;;;6219087;28;20038;-75
2022/10/01 04:55:51;;;;;;;5.35;2.35;;;14.90;64.00;;;;;;6209653;28;20066;-75
2022/10/01 04:58:52;;;;;;;3.20;2.10;;;14.90;64.00;;;;;;6210404;28;20052;-76
2022/10/01 05:01:53;;;;;;;9.32;2.53;;;14.90;64.00;;;;;;6195918;28;20097;-76
2022/10/01 05:04:55;;;;;;;2.95;2.20;;;14.90;64.00;;;;;;6215759;28;20045;-76
2022/10/01 05:07:55;;;;;;;6.97;2.67;;;15.00;63.90;;;;;;6219699;28;20038;-76
2022/10/01 05:10:59;;;;;;;4.68;2.72;;;15.00;64.00;;;;;;6214269;28;20060;-76
2022/10/01 05:14:00;;;;;;;4.38;2.75;;;15.00;63.90;;;;;;6200783;28;20041;-77
2022/10/01 05:17:01;;;;;;;7.25;3.08;;;15.10;63.90;;;;;;6197912;28;20049;-77
2022/10/01 05:20:04;;;;;;;4.85;2.67;;;15.10;63.90;;;;;;6188161;28;20046;-75
2022/10/01 05:23:05;;;;;;;4.05;2.45;;;15.10;63.80;;;;;;6217293;28;20053;-75
2022/10/01 05:26:07;;;;;;;5.13;2.83;;;15.20;63.70;;;;;;6216795;28;20030;-76
2022/10/01 05:29:09;;;;;;;3.90;2.35;;;15.20;63.80;;;;;;6215613;28;20050;-77
2022/10/01 05:32:11;;;;;;;4.38;2.45;;;15.20;63.60;;;;;;6212319;28;20148;-76
2022/10/01 05:35:12;;;;;;;6.60;2.50;;;15.30;63.60;;;;;;6216778;28;20037;-77
2022/10/01 05:38:19;;;;;;;5.35;2.00;;;15.30;63.50;;;;;;6297664;27;20386;-76
2022/10/01 05:41:20;;;;;;;3.38;2.28;;;15.30;63.50;;;;;;6289251;28;20354;-76
2022/10/01 05:44:22;;;;;;;4.43;2.83;;;15.40;63.50;;;;;;6288622;28;20052;-76
2022/10/01 05:47:24;;;;;;;7.80;2.25;;;15.40;63.50;;;;;;6287951;28;20099;-76
2022/10/01 05:50:26;;;;;;;3.97;1.67;;;15.40;63.50;;;;;;6263766;28;20041;-76
2022/10/01 05:53:27;;;;;;;5.13;2.20;;;15.40;63.50;;;;;;6264066;28;20041;-76
2022/10/01 05:56:28;;;;;;;4.70;2.17;;;15.30;63.30;;;;;;6263389;28;20412;-75
2022/10/01 05:59:29;;;;;;;4.82;2.40;;;15.30;63.30;;;;;;6264074;28;20029;-77
2022/10/01 06:02:30;;;;;;;5.38;2.20;;;15.30;63.40;;;;;;6300223;28;20116;-77
2022/10/01 06:05:33;;;;;;;3.47;2.15;;;15.40;63.40;;;;;;6261696;28;20033;-77
2022/10/01 06:08:35;;;;;;;4.93;2.13;;;15.40;63.20;;;;;;6266785;28;20056;-77
2022/10/01 06:11:37;;;;;;;8.68;2.22;;;15.40;63.20;;;;;;6263782;28;20052;-76
2022/10/01 06:14:38;;;;;;;3.65;2.20;;;15.50;63.00;;;;;;6262373;28;20072;-76
2022/10/01 06:17:43;;;;;;;4.10;2.13;;;15.50;62.90;;;;;;6262252;28;20132;-76
2022/10/01 06:20:44;;;;;;;3.67;1.95;;;15.50;62.80;;;;;;6287924;28;20366;-76
2022/10/01 06:23:48;;;;;;;4.25;2.50;;;15.50;62.80;;;;;;6262027;28;20056;-76
2022/10/01 06:26:49;;;;;;;9.18;2.60;;;15.60;62.90;;;;;;6260473;28;20041;-75
2022/10/01 06:29:50;;;;;;;5.20;2.25;;;15.60;62.90;;;;;;6261146;28;20144;-76
2022/10/01 06:32:51;;;;;;;4.45;2.33;;;15.60;62.90;;;;;;6267872;28;20091;-76
2022/10/01 06:35:52;;;;;;;4.75;2.30;;;15.70;62.90;;;;;;6262699;28;20128;-76
2022/10/01 06:38:53;;;;;;;6.40;2.80;;;15.70;62.70;;;;;;6262724;28;20026;-76
2022/10/01 06:41:54;;;;;;;9.68;3.20;;;15.80;62.70;;;;;;6262653;28;20175;-76
2022/10/01 06:44:55;;;;;;;4.15;2.47;;;15.80;62.60;;;;;;6262368;28;20091;-75
2022/10/01 06:48:02;;;;;;;8.45;2.65;;;15.90;62.70;;;;;;6255767;28;20041;-76
2022/10/01 06:51:04;;;;;;;5.13;2.47;;;15.90;62.70;;;;;;6279640;28;20095;-76
2022/10/01 06:54:05;;;;;;;5.38;3.17;;;15.90;62.70;;;;;;6270601;28;20355;-76
2022/10/01 06:57:06;;;;;;;8.93;3.00;;;15.90;62.70;;;;;;6304956;28;20040;-76
2022/10/01 07:00:08;;;;;;;5.72;2.97;;;15.90;62.60;;;;;;6272726;28;20043;-76
2022/10/01 07:03:15;;;;;;;8.20;3.50;;;15.90;62.50;;;;;;6253217;28;20363;-76
2022/10/01 07:06:16;;;;;;;7.57;3.45;;;16.00;62.60;;;;;;6269569;28;20047;-76
2022/10/01 07:09:17;;;;;;;6.45;2.95;;;16.00;62.50;;;;;;6272370;28;20037;-76
2022/10/01 07:12:19;;;;;;;4.93;2.92;;;16.10;62.50;;;;;;6268546;28;20093;-77
2022/10/01 07:15:21;;;;;;;6.30;3.10;;;16.10;62.50;;;;;;6261301;28;20036;-76
2022/10/01 07:18:22;;;;;;;7.68;2.78;;;16.10;62.30;;;;;;6274940;28;20420;-76
2022/10/01 07:21:23;;;;;;;5.10;2.70;;;16.10;62.30;;;;;;6269850;28;20045;-77
2022/10/01 07:24:24;;;;;;;4.32;3.08;;;16.20;62.20;;;;;;6270906;28;20025;-77
2022/10/01 07:27:25;;;;;;;5.00;2.58;;;16.20;62.20;;;;;;6272438;28;20048;-77
2022/10/01 07:30:27;;;;;;;4.35;2.25;;;16.20;62.10;;;;;;6272458;28;20053;-77
2022/10/01 07:33:28;;;;;;;12.23;3.10;;;16.20;62.10;;;;;;6287090;28;20033;-76
2022/10/01 07:36:29;;;;;;;6.10;2.88;;;16.30;62.10;;;;;;6271007;28;20489;-76
2022/10/01 07:39:30;;;;;;;9.85;3.40;;;16.30;62.10;;;;;;6250068;28;20053;-76
2022/10/01 07:42:31;;;;;;;6.38;3.00;;;16.30;62.00;;;;;;6264498;28;20426;-76
2022/10/01 07:45:32;;;;;;;3.40;2.22;;;16.30;62.00;;;;;;6270444;28;20086;-77
2022/10/01 07:48:33;;;;;;;2.88;2.35;;;16.40;61.80;;;;;;6270276;28;20041;-76
2022/10/01 07:51:35;;;;;;;9.35;2.83;;;16.40;61.60;;;;;;6264970;28;20037;-77
2022/10/01 07:54:36;;;;;;;5.50;2.85;;;16.50;61.40;;;;;;6268939;28;20033;-77
2022/10/01 07:57:37;;;;;;;14.40;3.47;;;16.60;61.10;;;;;;6267068;28;20203;-77
2022/10/01 08:00:38;;;;;;;15.77;3.25;;;16.60;61.70;;;;;;6269818;28;20048;-76
2022/10/01 08:03:39;;;;;;;9.70;3.50;;;16.70;60.80;;;;;;6256697;28;20385;-76
2022/10/01 08:06:41;;;;;;;12.05;3.75;;;16.80;60.70;;;;;;6244081;28;20041;-77
2022/10/01 08:09:42;;;;;;;5.60;3.40;;;16.80;60.60;;;;;;6262808;28;20052;-77
2022/10/01 08:12:44;;;;;;;5.78;3.17;;;16.90;60.70;;;;;;6268351;28;20128;-77
2022/10/01 08:15:52;;;;;;;4.32;2.80;;;16.90;60.70;;;;;;6268685;28;20386;-77
2022/10/01 08:18:54;;;;;;;5.03;2.90;;;17.00;60.70;;;;;;6268911;28;20041;-77
2022/10/01 08:21:55;;;;;;;7.35;3.13;;;17.00;60.60;;;;;;6270857;28;20044;-77
2022/10/01 08:24:56;;;;;;;13.85;3.10;;;17.00;60.40;;;;;;6269054;28;20053;-77
2022/10/01 08:27:58;;;;;;;7.28;2.95;;;17.00;60.40;;;;;;6269331;28;20025;-77
2022/10/01 08:31:06;;;;;;;10.63;3.33;;;17.10;60.40;;;;;;6299876;28;20048;-77
2022/10/01 08:34:06;;;;;;;11.73;4.53;;;17.20;59.90;;;;;;6272425;28;20413;-77
2022/10/01 08:37:08;;;;;;;11.48;3.65;;;17.20;59.70;;;;;;6244777;28;20053;-77
2022/10/01 08:40:09;;;;;;;5.35;3.15;;;17.30;59.40;;;;;;6264344;28;20032;-76
2022/10/01 08:43:32;;;;;;;15.38;3.95;;;17.40;59.20;;;;;;6268401;28;20033;-77
2022/10/01 08:46:36;;;;;;;14.43;4.13;;;17.40;59.20;;;;;;6268365;28;20037;-77
2022/10/01 08:49:43;;;;;;;5.95;3.50;;;17.60;59.00;;;;;;6259370;28;20086;-78
2022/10/01 08:52:58;;;;;;;3.03;2.37;;;17.70;58.70;;;;;;6288478;28;20417;-76
2022/10/01 08:56:02;;;;;;;7.88;3.38;;;17.70;58.50;;;;;;6265186;28;20055;-77
2022/10/01 08:59:36;;;;;;;8.98;4.70;;;17.80;58.50;;;;;;6264521;28;20083;-77
2022/10/01 09:02:39;;;;;;;13.82;7.13;;;17.80;58.60;;;;;;6269034;28;20048;-77
2022/10/01 09:06:04;;;;;;;12.32;5.45;;;17.80;58.60;;;;;;6239561;28;20029;-77
2022/10/01 09:09:23;;;;;;;5.95;3.42;;;17.90;58.70;;;;;;6262578;28;20040;-78
2022/10/01 09:13:03;;;;;;;9.00;4.22;;;17.90;58.50;;;;;;6281447;28;20419;-77
2022/10/01 09:16:31;;;;;;;14.65;5.70;;;17.90;58.60;;;;;;6259458;28;20172;-77
2022/10/01 09:19:55;;;;;;;10.70;4.88;;;17.90;59.50;;;;;;6262654;28;20047;-77
2022/10/01 09:23:21;;;;;;;9.70;6.43;;;17.90;59.00;;;;;;6266384;28;20490;-76
2022/10/01 09:26:23;;;;;;;8.20;4.68;;;18.00;59.00;;;;;;6279477;28;20028;-77
2022/10/01 09:29:38;;;;;;;9.60;4.32;;;18.00;58.90;;;;;;6265433;28;20036;-77
2022/10/01 09:32:54;;;;;;;9.05;4.13;;;18.00;59.00;;;;;;6281447;28;20419;-77
2022/10/01 09:36:10;;;;;;;11.65;4.75;;;18.00;58.90;;;;;;6265839;28;20049;-77
2022/10/01 09:39:26;;;;;;;12.23;4.75;;;18.00;59.00;;;;;;6282525;28;20487;-77
2022/10/01 09:42:29;;;;;;;9.60;5.90;;;17.90;59.10;;;;;;6264208;28;20401;-77
2022/10/01 09:45:30;;;;;;;7.38;4.80;;;18.00;59.10;;;;;;6266592;28;20446;-77
2022/10/01 09:48:49;;;;;;;10.07;5.20;;;17.90;59.10;;;;;;6266637;28;20106;-77
2022/10/01 09:51:57;;;;;;;16.45;4.90;;;17.90;59.20;;;;;;6264645;28;20052;-77
2022/10/01 09:55:20;;;;;;;7.80;4.30;;;17.90;59.30;;;;;;6263697;28;20040;-77
2022/10/01 09:58:25;;;;;;;7.40;4.53;;;17.90;59.40;;;;;;6245367;28;20047;-78
2022/10/01 10:01:43;;;;;;;11.57;4.20;;;17.90;59.40;;;;;;6285710;28;20041;-78
2022/10/01 10:04:45;;;;;;;8.15;4.53;;;17.90;59.50;;;;;;6265171;28;20124;-77
2022/10/01 10:07:59;;;;;;;10.25;4.57;;;17.90;59.40;;;;;;6234914;28;20039;-77
2022/10/01 10:11:04;;;;;;;15.80;6.53;;;17.90;59.50;;;;;;6265093;28;20036;-78
2022/10/01 10:14:14;;;;;;;11.85;6.22;;;18.00;59.40;;;;;;6265848;28;20044;-77
2022/10/01 10:17:16;;;;;;;21.77;6.75;;;18.00;59.40;;;;;;6265152;28;20053;-77
2022/10/01 10:20:24;;;;;;;14.27;7.18;;;18.10;59.50;;;;;;6263995;28;20040;-77
2022/10/01 10:23:30;;;;;;;12.75;4.20;;;18.10;59.40;;;;;;6270794;28;20140;-78
2022/10/01 10:26:34;;;;;;;11.32;5.18;;;18.10;59.20;;;;;;6289815;28;20033;-78
2022/10/01 10:29:36;;;;;;;25.05;10.93;;;18.10;59.20;;;;;;6270089;28;20528;-78
2022/10/01 10:32:38;;;;;;;20.98;9.35;;;18.10;59.20;;;;;;6257362;28;20477;-77
2022/10/01 10:35:40;;;;;;;13.30;6.28;;;18.10;59.20;;;;;;6269608;28;20037;-78
2022/10/01 10:38:48;;;;;;;22.52;6.22;;;18.20;59.10;;;;;;6275905;28;20061;-77
2022/10/01 10:41:52;;;;;;;13.93;7.65;;;18.10;58.90;;;;;;6241009;28;20033;-78
2022/10/01 10:44:56;;;;;;;10.60;4.90;;;18.20;59.00;;;;;;6271042;28;20025;-77
2022/10/01 10:47:57;;;;;;;12.27;6.95;;;18.20;59.10;;;;;;6270930;28;20486;-77
2022/10/01 10:51:01;;;;;;;20.92;6.03;;;18.20;59.00;;;;;;6277338;28;20429;-77
2022/10/01 10:54:02;;;;;;;28.25;10.13;;;18.20;59.00;;;;;;6265019;28;20036;-78
2022/10/01 10:57:27;;;;;;;24.17;9.70;;;18.20;59.10;;;;;;6270213;28;20496;-78
2022/10/01 11:00:28;;;;;;;11.20;5.75;;;18.20;59.30;;;;;;6269129;28;20116;-77
2022/10/01 11:03:31;;;;;;;8.25;4.72;;;18.20;59.20;;;;;;6276001;28;20036;-77
2022/10/01 11:06:32;;;;;;;8.57;4.25;;;18.20;59.30;;;;;;6279847;28;20124;-77
2022/10/01 11:09:45;;;;;;;9.85;5.35;;;18.10;59.30;;;;;;6247248;28;20033;-77
2022/10/01 11:13:17;;;;;;;7.97;4.53;;;18.10;59.50;;;;;;6267590;28;20042;-77
2022/10/01 11:16:59;;;;;;;16.40;6.57;;;18.20;59.60;;;;;;6261766;28;20033;-77
2022/10/01 11:20:00;;;;;;;20.58;9.13;;;18.20;59.50;;;;;;6298234;28;20412;-77
2022/10/01 11:23:09;;;;;;;25.92;11.40;;;18.20;59.50;;;;;;6297836;28;20037;-77
2022/10/01 11:26:17;;;;;;;12.82;5.40;;;18.10;59.60;;;;;;6261053;28;20059;-77
2022/10/01 11:29:34;;;;;;;14.75;5.85;;;18.20;59.80;;;;;;6270751;28;20119;-77
2022/10/01 11:32:44;;;;;;;9.88;5.72;;;18.20;59.90;;;;;;6257319;28;20501;-77
2022/10/01 11:36:21;;;;;;;8.50;4.65;;;18.20;59.90;;;;;;6273494;28;20132;-77
2022/10/01 11:39:25;;;;;;;7.50;4.90;;;18.20;60.00;;;;;;6266606;28;20171;-78
2022/10/01 11:42:34;;;;;;;20.83;8.70;;;18.30;60.20;;;;;;6275353;28;20126;-77
2022/10/01 11:45:44;;;;;;;19.23;8.35;;;18.30;60.40;;;;;;6304696;28;20115;-77
2022/10/01 11:49:14;;;;;;;9.68;6.05;;;18.20;60.70;;;;;;6262590;28;20056;-78
2022/10/01 11:52:39;;;;;;;9.93;5.60;;;18.10;60.80;;;;;;6270445;28;20029;-77
2022/10/01 11:59:55;;;;;;;11.27;5.28;;;18.20;61.00;;;;;;6277119;28;20039;-77
2022/10/01 12:03:00;;;;;;;18.35;8.57;;;18.10;61.10;;;;;;6251860;28;20037;-78
2022/10/01 12:06:08;;;;;;;17.73;7.07;;;18.20;61.20;;;;;;6269354;28;20041;-76
2022/10/01 12:09:34;;;;;;;25.58;11.30;;;18.20;61.30;;;;;;6264408;28;20132;-77
2022/10/01 12:12:47;;;;;;;17.70;8.80;;;18.20;61.40;;;;;;6280429;28;20094;-77
2022/10/01 12:15:51;;;;;;;8.32;4.82;;;18.20;61.50;;;;;;6269514;28;20453;-77
2022/10/01 12:19:11;;;;;;;13.13;3.97;;;18.30;61.60;;;;;;6269061;28;20032;-76
2022/10/01 12:22:24;;;;;;;14.52;6.35;;;18.30;61.60;;;;;;6267261;28;20045;-77
2022/10/01 12:25:56;;;;;;;6.82;3.42;;;18.30;61.60;;;;;;6234329;28;20056;-77
2022/10/01 12:29:11;;;;;;;5.28;2.90;;;18.20;61.70;;;;;;6256086;28;20108;-78
2022/10/01 12:32:24;;;;;;;3.55;2.50;;;18.20;62.00;;;;;;6271636;28;20127;-78
2022/10/01 12:35:46;;;;;;;6.47;3.58;;;18.30;61.80;;;;;;6251484;28;20055;-78
2022/10/01 12:39:20;;;;;;;3.88;2.00;;;18.30;61.60;;;;;;6266725;28;20116;-78
2022/10/01 12:42:55;;;;;;;2.97;1.67;;;18.30;61.40;;;;;;6260575;28;20489;-77
2022/10/01 12:46:40;;;;;;;3.60;1.85;;;18.20;61.30;;;;;;6262024;28;20037;-77
2022/10/01 12:49:49;;;;;;;7.90;2.40;;;18.20;61.30;;;;;;6246440;28;20370;-78
2022/10/01 12:52:57;;;;;;;4.35;2.50;;;18.10;61.50;;;;;;6268799;28;20158;-77
2022/10/01 12:56:16;;;;;;;6.30;2.90;;;18.10;61.80;;;;;;6284205;28;20068;-77
2022/10/01 12:59:47;;;;;;;5.63;2.17;;;18.00;62.00;;;;;;6262682;28;20071;-76
2022/10/01 13:02:57;;;;;;;5.53;1.77;;;18.00;62.20;;;;;;6260357;28;20030;-77
2022/10/01 13:06:08;;;;;;;4.70;1.55;;;17.90;62.50;;;;;;6259564;28;20065;-76
2022/10/01 13:09:21;;;;;;;3.75;1.77;;;17.80;62.90;;;;;;6267161;28;20036;-77
2022/10/01 13:12:42;;;;;;;2.00;1.45;;;17.70;63.20;;;;;;6266297;28;20493;-76
2022/10/01 13:15:46;;;;;;;1.77;1.13;;;17.70;63.40;;;;;;6232988;28;20030;-77
2022/10/01 13:18:59;;;;;;;3.08;1.88;;;17.60;63.40;;;;;;6251720;28;20056;-78
2022/10/01 13:22:21;;;;;;;3.67;1.60;;;17.60;63.40;;;;;;6250018;28;22185;-77
2022/10/01 13:25:28;;;;;;;2.72;1.63;;;17.60;63.60;;;;;;6266083;28;20116;-77
2022/10/01 13:28:51;;;;;;;2.45;1.63;;;17.60;63.70;;;;;;6267011;28;20025;-77
2022/10/01 13:32:01;;;;;;;3.85;1.92;;;17.60;64.00;;;;;;6266785;28;20021;-76
2022/10/01 13:35:31;;;;;;;3.20;1.63;;;17.70;64.10;;;;;;6227172;28;20092;-78
2022/10/01 13:38:42;;;;;;;2.30;1.08;;;17.70;64.20;;;;;;6266520;28;20051;-76
2022/10/01 13:41:42;;;;;;;7.38;2.50;;;17.70;64.20;;;;;;6255452;28;20131;-78
2022/10/01 13:44:44;;;;;;;15.32;4.63;;;17.60;64.20;;;;;;6238430;28;20067;-77
2022/10/01 13:47:46;;;;;;;3.15;1.95;;;17.60;64.40;;;;;;6238256;28;20037;-76
2022/10/01 13:50:56;;;;;;;5.10;2.60;;;17.60;64.50;;;;;;6280880;28;20060;-77
2022/10/01 13:54:01;;;;;;;2.88;1.63;;;17.60;64.50;;;;;;6265817;28;20033;-76
2022/10/01 13:57:21;;;;;;;3.42;2.20;;;17.50;64.60;;;;;;6267032;28;20061;-76
2022/10/01 14:00:23;;;;;;;6.18;2.35;;;17.50;64.70;;;;;;6279321;28;20055;-78
2022/10/01 14:03:43;;;;;;;4.70;2.22;;;17.50;64.70;;;;;;6282494;28;20525;-77
2022/10/01 14:07:22;;;;;;;4.38;2.22;;;17.50;64.80;;;;;;6298340;28;20033;-77
2022/10/01 14:15:57;;;;;;;24.58;10.13;;;17.60;65.00;;;;;;6178444;28;20034;-77
2022/10/01 14:17:31;;;;;;;3.35;2.33;;;17.60;65.60;;;;;;6177730;28;20069;-78
2022/10/01 14:20:48;;;;;;;4.65;1.65;;;17.60;64.70;;;;;;6174979;28;20038;-76
2022/10/01 14:24:04;;;;;;;3.90;2.28;;;17.60;64.80;;;;;;6168179;28;20537;-76
2022/10/01 14:27:43;;;;;;;2.72;1.10;;;17.70;64.80;;;;;;6194491;28;20038;-77
2022/10/01 14:31:13;;;;;;;2.70;1.50;;;17.70;64.60;;;;;;6117923;28;20039;-77
2022/10/01 14:35:01;;;;;;;3.42;1.52;;;17.70;64.70;;;;;;6164306;28;20042;-76
2022/10/01 14:38:18;;;;;;;4.32;1.80;;;17.70;65.10;;;;;;6165611;28;20066;-76
2022/10/01 14:41:22;;;;;;;5.50;2.03;;;17.60;65.30;;;;;;6166767;28;20121;-76
2022/10/01 14:44:27;;;;;;;5.68;2.47;;;17.60;65.50;;;;;;6156161;28;20091;-77
2022/10/01 14:47:34;;;;;;;4.97;2.45;;;17.60;65.70;;;;;;6217226;28;20111;-77
2022/10/01 14:50:37;;;;;;;19.65;6.93;;;17.60;65.70;;;;;;6209604;28;20450;-77
2022/10/01 14:53:42;;;;;;;15.68;4.35;;;17.70;65.60;;;;;;6203537;28;20048;-77
2022/10/01 14:56:43;;;;;;;22.45;8.18;;;17.70;65.50;;;;;;6221265;28;20053;-77
2022/10/01 14:59:47;;;;;;;2.45;1.65;;;17.70;65.30;;;;;;6205055;28;20103;-77
2022/10/01 15:02:51;;;;;;;6.18;2.40;;;17.80;65.30;;;;;;6205769;28;20037;-77
2022/10/01 15:06:02;;;;;;;24.08;7.75;;;17.70;65.20;;;;;;6207019;28;20121;-78
2022/10/01 15:09:17;;;;;;;6.95;1.90;;;17.80;65.30;;;;;;6266358;28;20116;-78
2022/10/01 15:12:21;;;;;;;8.07;2.80;;;17.90;65.40;;;;;;6267854;28;20072;-77
2022/10/01 15:15:38;;;;;;;3.70;2.08;;;17.90;65.50;;;;;;6265774;28;20450;-76
2022/10/01 15:18:46;;;;;;;3.25;1.98;;;17.90;65.50;;;;;;6259671;28;20037;-77
2022/10/01 15:21:52;;;;;;;5.20;2.40;;;17.90;65.70;;;;;;6265940;28;20067;-76
2022/10/01 15:24:58;;;;;;;6.43;3.40;;;17.80;65.50;;;;;;6270359;28;20112;-76
2022/10/01 15:27:59;;;;;;;15.38;6.15;;;17.80;65.50;;;;;;6282959;28;20087;-76
2022/10/01 15:31:03;;;;;;;12.13;5.40;;;17.80;65.60;;;;;;6266907;28;20044;-77
2022/10/01 15:34:06;;;;;;;10.25;5.10;;;17.70;65.80;;;;;;6269041;28;20036;-77
2022/10/01 15:37:16;;;;;;;10.88;3.88;;;17.80;66.10;;;;;;6241488;28;20048;-77
2022/10/01 15:40:35;;;;;;;6.97;3.42;;;17.80;66.30;;;;;;6266203;28;20055;-77
2022/10/01 15:43:40;;;;;;;;;;;17.70;66.20;;;;;;6275984;28;20045;-77
2022/10/01 15:46:41;;;;;;;14.77;7.72;;;17.70;66.50;;;;;;6287728;28;20015;-77
2022/10/01 15:49:59;;;;;;;17.38;8.30;;;17.70;66.40;;;;;;6262502;28;20097;-77
2022/10/01 15:53:09;;;;;;;27.10;10.63;;;17.60;66.60;;;;;;6264399;28;20048;-77
2022/10/01 15:56:15;;;;;;;11.95;5.50;;;17.60;66.70;;;;;;6276839;28;20215;-78
2022/10/01 15:59:19;;;;;;;21.30;9.45;;;17.60;66.80;;;;;;6270115;28;20037;-76
2022/10/01 16:02:25;;;;;;;17.67;7.47;;;17.60;67.00;;;;;;6272917;28;20178;-77
2022/10/01 16:05:34;;;;;;;17.10;8.18;;;17.60;66.90;;;;;;6269834;28;20040;-79
2022/10/01 16:08:50;;;;;;;14.88;6.25;;;17.60;66.90;;;;;;6271526;28;20041;-77
2022/10/01 16:11:57;;;;;;;7.18;3.50;;;17.60;67.10;;;;;;6269511;28;20033;-79
2022/10/01 16:14:59;;;;;;;4.32;3.05;;;17.60;67.20;;;;;;6240742;28;20036;-77
2022/10/01 16:18:04;;;;;;;8.88;3.60;;;17.60;67.40;;;;;;6245275;28;20458;-78
2022/10/01 16:21:10;;;;;;;3.97;2.40;;;17.50;67.40;;;;;;6263596;28;20036;-77
2022/10/01 16:24:27;;;;;;;11.25;3.83;;;17.50;67.70;;;;;;6271533;28;20029;-77
2022/10/01 16:27:41;;;;;;;7.60;3.47;;;17.40;67.90;;;;;;6266910;28;20040;-77